Time;durP1;ratioP1;P1;durP2;ratioP2;P2;SDS_P1;SDS_P2;PMS_P1;PMS_P2;Temp;Humidity;BMP_temperature;BMP_pressure;BME280_temperature;BME280_humidity;BME280_pressure;Samples;Min_cycle;Max_cycle;Signal;HPM_P1;HPM_P2
2021/07/20 00:00:27;;;;;;;7.65;6.10;;;;;;;21.24;58.08;101121.91;4975001;28;20030;-51
2021/07/20 00:02:55;;;;;;;7.85;6.20;;;;;;;21.24;58.15;101124.59;4971909;28;20031;-51
2021/07/20 00:05:24;;;;;;;8.20;6.60;;;;;;;21.24;58.28;101129.94;4958968;28;20049;-51
2021/07/20 00:07:59;;;;;;;6.68;5.95;;;;;;;21.23;58.29;101128.19;4953789;28;20521;-51
2021/07/20 00:10:39;;;;;;;9.40;6.47;;;;;;;21.23;58.38;101117.44;4962287;28;20049;-51
2021/07/20 00:13:05;;;;;;;7.18;6.25;;;;;;;21.23;58.38;101114.78;4960206;28;20149;-50
2021/07/20 00:15:32;;;;;;;8.73;6.45;;;;;;;21.22;58.46;101121.09;4977563;28;20475;-50
2021/07/20 00:18:10;;;;;;;7.18;6.40;;;;;;;21.23;58.29;101117.44;4956222;28;20026;-51
2021/07/20 00:20:38;;;;;;;7.95;6.20;;;;;;;21.21;58.50;101111.31;4966557;28;20093;-51
2021/07/20 00:23:05;;;;;;;7.75;6.60;;;;;;;21.21;58.42;101116.69;4981739;28;20481;-51
2021/07/20 00:25:32;;;;;;;9.65;6.65;;;;;;;21.21;58.39;101117.53;4968510;28;20046;-51
2021/07/20 00:28:01;;;;;;;6.88;5.60;;;;;;;21.21;58.51;101119.34;4962946;28;20027;-51
2021/07/20 00:30:31;;;;;;;7.90;7.13;;;;;;;21.20;58.43;101115.78;4957796;28;20493;-51
2021/07/20 00:33:03;;;;;;;7.95;6.70;;;;;;;21.19;58.46;101115.84;4960699;28;20046;-51
2021/07/20 00:35:29;;;;;;;7.80;6.00;;;;;;;21.21;58.43;101122.03;4978125;28;20023;-51
2021/07/20 00:37:59;;;;;;;7.18;6.32;;;;;;;21.19;58.45;101118.53;4961251;28;20027;-50
2021/07/20 00:47:12;;;;;;;8.30;7.20;;;;;;;21.17;58.55;101104.34;4981718;28;20588;-51
2021/07/20 00:49:38;;;;;;;8.40;6.45;;;;;;;21.17;58.47;101110.56;4937779;28;20050;-51
2021/07/20 00:52:04;;;;;;;9.68;6.70;;;;;;;21.17;58.54;101115.94;4958679;28;20539;-51
2021/07/20 00:54:30;;;;;;;8.70;6.68;;;;;;;21.16;58.37;101108.84;4976069;28;20122;-51
2021/07/20 00:57:01;;;;;;;9.77;6.57;;;;;;;21.17;58.51;101109.72;4958801;28;20062;-51
2021/07/20 00:59:27;;;;;;;8.30;6.65;;;;;;;21.17;58.34;101115.09;4977973;28;20113;-52
2021/07/20 01:01:59;;;;;;;10.48;7.50;;;;;;;21.15;58.45;101116.00;4976739;28;20192;-52
2021/07/20 01:04:29;;;;;;;8.25;7.47;;;;;;;21.14;58.58;101108.91;4972834;28;20103;-52
2021/07/20 01:06:56;;;;;;;8.02;6.70;;;;;;;21.14;58.46;101103.53;4955418;28;20034;-51
2021/07/20 01:09:24;;;;;;;7.32;6.63;;;;;;;21.15;58.59;101109.78;4976234;28;20022;-52
2021/07/20 01:11:54;;;;;;;8.90;7.15;;;;;;;21.15;58.53;101107.09;4961152;28;20121;-52
2021/07/20 01:14:28;;;;;;;8.55;6.82;;;;;;;21.13;58.50;101107.16;4962242;28;20039;-51
2021/07/20 01:17:00;;;;;;;8.85;6.53;;;;;;;21.13;58.44;101109.84;4975844;28;20110;-52
2021/07/20 01:19:37;;;;;;;9.40;6.90;;;;;;;21.13;58.41;101109.84;4961128;28;20480;-51
2021/07/20 01:22:05;;;;;;;7.65;6.63;;;;;;;21.13;58.42;101103.59;4974315;28;20033;-51
2021/07/20 01:24:31;;;;;;;7.00;5.85;;;;;;;21.11;58.61;101095.63;4974701;28;20034;-51
2021/07/20 01:27:01;;;;;;;7.07;5.97;;;;;;;21.10;58.56;101099.25;4957723;28;20134;-51
2021/07/20 01:29:28;;;;;;;8.95;6.90;;;;;;;21.11;58.56;101105.50;4964875;28;20026;-52
2021/07/20 01:31:55;;;;;;;8.75;6.20;;;;;;;21.10;58.53;101103.75;4976060;28;20085;-51
2021/07/20 01:34:21;;;;;;;7.80;7.03;;;;;;;21.10;58.52;101106.44;4975553;28;20547;-52
2021/07/20 01:36:49;;;;;;;7.78;6.97;;;;;;;21.09;58.45;101107.38;4943107;28;20062;-51
2021/07/20 01:39:16;;;;;;;7.85;6.22;;;;;;;21.08;58.58;101105.66;4971575;28;20026;-51
2021/07/20 01:41:43;;;;;;;7.00;6.10;;;;;;;21.09;58.58;101108.25;4956364;28;20022;-51
2021/07/20 01:44:13;;;;;;;6.70;5.75;;;;;;;21.08;58.59;101111.91;4979055;28;20085;-51
2021/07/20 01:46:40;;;;;;;7.22;6.20;;;;;;;21.08;58.56;101116.38;4973374;28;20060;-51
2021/07/20 01:49:11;;;;;;;7.68;6.55;;;;;;;21.07;58.50;101112.81;4963864;28;20034;-52
2021/07/20 01:51:37;;;;;;;7.88;6.90;;;;;;;21.06;58.52;101108.41;4963420;28;20402;-50
2021/07/20 01:54:04;;;;;;;7.75;6.68;;;;;;;21.06;58.45;101108.41;4955086;28;20436;-50
2021/07/20 01:56:34;;;;;;;9.23;7.13;;;;;;;21.05;58.42;101112.03;4971847;28;20034;-51
2021/07/20 01:59:10;;;;;;;8.20;6.82;;;;;;;21.05;58.50;101108.47;4972649;28;20030;-51
2021/07/20 02:01:44;;;;;;;8.93;6.38;;;;;;;21.04;58.56;101110.25;4987419;28;20042;-51
2021/07/20 02:09:55;;;;;;;9.18;6.43;;;;;;;21.02;58.42;101107.69;4975054;28;20073;-51
2021/07/20 02:12:32;;;;;;;6.68;5.45;;;;;;;21.03;58.46;101113.91;4978136;28;20023;-52
2021/07/20 02:14:59;;;;;;;6.65;6.05;;;;;;;21.02;58.50;101101.44;4975795;28;20436;-51
2021/07/20 02:17:29;;;;;;;8.40;7.00;;;;;;;21.02;58.57;101106.81;4959777;28;20493;-51
2021/07/20 02:20:10;;;;;;;8.17;6.90;;;;;;;21.02;58.48;101096.97;4961659;28;20101;-52
2021/07/20 02:22:37;;;;;;;6.97;6.28;;;;;;;21.02;58.48;101114.84;4959074;28;20081;-51
2021/07/20 02:25:11;;;;;;;7.50;6.40;;;;;;;21.00;58.36;101109.56;4953514;28;20045;-51
2021/07/20 02:27:40;;;;;;;7.38;6.45;;;;;;;21.00;58.53;101111.34;4970200;28;20030;-51
2021/07/20 02:30:11;;;;;;;8.13;7.03;;;;;;;20.98;58.54;101111.41;4954020;28;20101;-50
2021/07/20 02:32:37;;;;;;;7.97;6.38;;;;;;;20.99;58.71;101117.66;4974024;28;20018;-49
2021/07/20 02:35:05;;;;;;;7.85;5.70;;;;;;;20.98;58.69;101111.41;4970767;28;20027;-51
2021/07/20 02:37:31;;;;;;;8.07;6.20;;;;;;;20.97;58.64;101108.84;4977389;28;20037;-50
2021/07/20 02:39:58;;;;;;;6.90;6.20;;;;;;;20.96;58.64;101112.44;4972715;28;20054;-52
2021/07/20 02:42:24;;;;;;;7.03;6.32;;;;;;;20.96;58.65;101107.06;4972304;28;20026;-49
2021/07/20 02:44:50;;;;;;;8.15;6.10;;;;;;;20.95;58.59;101105.34;4971364;28;20085;-51
2021/07/20 02:47:16;;;;;;;7.13;6.43;;;;;;;20.95;58.58;101099.97;4969650;28;20094;-50
2021/07/20 02:49:42;;;;;;;6.78;6.03;;;;;;;20.94;58.51;101103.63;4971086;28;20440;-50
2021/07/20 02:52:08;;;;;;;7.20;6.05;;;;;;;20.94;58.65;101108.97;4972623;28;20054;-51
2021/07/20 02:54:34;;;;;;;7.82;7.03;;;;;;;20.94;58.59;101119.69;4971100;28;20027;-51
2021/07/20 02:57:00;;;;;;;7.65;6.88;;;;;;;20.93;58.60;101113.44;4968710;28;20508;-51
2021/07/20 02:59:26;;;;;;;8.13;6.57;;;;;;;20.92;58.63;101119.75;4969116;28;20031;-50
2021/07/20 03:01:54;;;;;;;8.68;6.95;;;;;;;20.91;58.67;101119.84;4969043;28;20123;-51
2021/07/20 03:04:19;;;;;;;7.68;6.68;;;;;;;20.92;58.61;101116.19;4969026;28;20181;-51
2021/07/20 03:06:49;;;;;;;7.28;6.43;;;;;;;20.89;58.58;101120.78;4968817;28;20556;-51
2021/07/20 03:09:15;;;;;;;7.00;6.30;;;;;;;20.89;58.53;101119.91;4970867;28;20030;-51
2021/07/20 03:11:43;;;;;;;7.07;6.30;;;;;;;20.89;58.64;101126.16;4969670;28;20262;-52
2021/07/20 03:14:12;;;;;;;8.43;6.10;;;;;;;20.89;58.71;101123.47;4968803;28;20404;-52
2021/07/20 03:16:38;;;;;;;7.22;6.45;;;;;;;20.87;58.64;101119.06;4968253;28;20031;-52
2021/07/20 03:19:06;;;;;;;8.52;6.45;;;;;;;20.87;58.67;101125.28;4970154;28;20037;-51
2021/07/20 03:21:33;;;;;;;7.65;6.40;;;;;;;20.87;58.66;101124.41;4969409;28;20610;-49
2021/07/20 03:24:01;;;;;;;6.65;6.05;;;;;;;20.87;58.73;101119.94;4967835;28;20027;-50
2021/07/20 03:26:26;;;;;;;7.15;6.45;;;;;;;20.86;58.69;101118.19;4970019;28;20035;-51
2021/07/20 03:28:53;;;;;;;9.15;6.88;;;;;;;20.86;58.70;101115.53;4968868;28;20023;-50
2021/07/20 03:31:19;;;;;;;8.07;6.15;;;;;;;20.85;58.76;101119.16;4971892;28;20041;-50
2021/07/20 03:33:44;;;;;;;9.68;6.82;;;;;;;20.85;58.80;101120.94;4969887;28;20019;-51
2021/07/20 03:36:10;;;;;;;9.30;6.18;;;;;;;20.83;58.71;101118.34;4968483;28;20073;-50
2021/07/20 03:38:36;;;;;;;8.65;6.18;;;;;;;20.83;58.82;101123.69;4953660;28;20050;-50
2021/07/20 03:41:02;;;;;;;7.13;6.30;;;;;;;20.83;58.77;101129.06;4951259;28;20038;-50
2021/07/20 03:43:28;;;;;;;6.50;5.57;;;;;;;20.82;58.75;101126.44;4969579;28;20026;-50
2021/07/20 03:45:55;;;;;;;6.60;5.80;;;;;;;20.82;58.97;101126.44;4968143;28;20042;-51
2021/07/20 03:48:20;;;;;;;7.50;6.45;;;;;;;20.82;58.78;101126.44;4964686;28;20067;-50
2021/07/20 03:50:51;;;;;;;7.00;6.28;;;;;;;20.81;58.81;101124.72;4974255;28;20450;-50
2021/07/20 03:53:16;;;;;;;7.35;6.53;;;;;;;20.80;58.90;101122.97;4965462;28;20034;-50
2021/07/20 03:55:46;;;;;;;6.13;5.53;;;;;;;20.79;58.85;101130.13;4974873;28;20081;-50
2021/07/20 03:58:12;;;;;;;7.55;6.43;;;;;;;20.80;58.84;101126.50;4939322;28;20035;-50
2021/07/20 04:00:37;;;;;;;8.02;6.05;;;;;;;20.79;58.89;101131.94;4965423;28;20367;-50
2021/07/20 04:03:24;;;;;;;6.88;6.03;;;;;;;20.76;58.79;101124.91;4976719;28;20481;-50
2021/07/20 04:05:53;;;;;;;6.13;5.53;;;;;;;20.77;58.89;101132.00;4971050;28;20050;-50
2021/07/20 04:08:19;;;;;;;7.45;5.80;;;;;;;20.77;58.92;101121.28;4981670;28;20027;-51
2021/07/20 04:10:46;;;;;;;6.72;5.97;;;;;;;20.76;58.86;101122.22;4972301;28;20034;-51
2021/07/20 04:13:12;;;;;;;6.30;5.50;;;;;;;20.76;58.85;101120.44;4973619;28;20031;-51
2021/07/20 04:15:45;;;;;;;6.63;5.57;;;;;;;20.75;58.84;101121.34;4974177;28;20089;-51
2021/07/20 04:18:11;;;;;;;6.32;5.70;;;;;;;20.75;58.82;101120.50;4970460;28;20058;-52
2021/07/20 04:20:36;;;;;;;7.97;5.97;;;;;;;20.74;58.88;101114.25;4972325;28;20668;-51
2021/07/20 04:23:02;;;;;;;7.25;6.22;;;;;;;20.75;58.81;101115.13;4974582;28;20134;-49
2021/07/20 04:25:28;;;;;;;6.78;6.15;;;;;;;20.74;58.91;101121.44;4977927;28;20366;-49
2021/07/20 04:27:53;;;;;;;7.10;5.97;;;;;;;20.73;58.99;101117.00;4976794;28;20023;-50
2021/07/20 04:30:18;;;;;;;6.20;5.60;;;;;;;20.75;58.84;101118.66;4978547;28;20027;-51
2021/07/20 04:32:47;;;;;;;8.23;6.07;;;;;;;20.73;58.83;101117.00;4973019;28;20034;-49
2021/07/20 04:35:17;;;;;;;7.53;5.78;;;;;;;20.74;58.78;101124.97;4958598;28;20109;-50
2021/07/20 04:37:43;;;;;;;6.20;5.60;;;;;;;20.72;58.91;101120.63;4972431;28;20037;-51
2021/07/20 04:40:13;;;;;;;6.88;5.28;;;;;;;20.71;58.86;101114.38;4974135;28;20030;-48
2021/07/20 04:42:39;;;;;;;6.40;5.55;;;;;;;20.72;58.86;101120.63;4972067;28;20093;-50
2021/07/20 04:45:10;;;;;;;7.70;6.10;;;;;;;20.71;59.00;101119.75;4972014;28;20030;-51
2021/07/20 04:47:36;;;;;;;6.65;5.93;;;;;;;20.69;58.93;101121.66;4973379;28;20027;-48
2021/07/20 04:50:05;;;;;;;7.75;6.57;;;;;;;20.70;58.90;101119.81;4974975;28;20027;-49
2021/07/20 04:52:32;;;;;;;6.63;5.63;;;;;;;20.68;59.10;101124.38;4971480;28;20023;-50
2021/07/20 04:54:58;;;;;;;7.65;6.38;;;;;;;20.68;59.03;101122.59;4972227;28;20521;-49
2021/07/20 04:57:23;;;;;;;8.13;5.78;;;;;;;20.66;58.92;101120.88;4976490;28;20034;-48
2021/07/20 04:59:49;;;;;;;6.60;5.95;;;;;;;20.67;58.87;101123.50;4970730;28;20125;-52
2021/07/20 05:02:15;;;;;;;7.28;5.75;;;;;;;20.67;58.96;101125.34;4974013;28;20113;-51
2021/07/20 05:04:42;;;;;;;6.65;6.00;;;;;;;20.65;59.00;101133.44;4970453;28;20117;-52
2021/07/20 05:07:11;;;;;;;7.85;6.10;;;;;;;20.64;59.07;101129.88;4954618;28;20121;-52
2021/07/20 05:09:37;;;;;;;7.15;5.65;;;;;;;20.63;59.10;101127.25;4974611;28;20038;-50
2021/07/20 05:12:05;;;;;;;6.95;6.25;;;;;;;20.63;59.09;101127.25;4975126;28;20049;-51
2021/07/20 05:14:30;;;;;;;7.55;5.93;;;;;;;20.63;59.09;101133.50;4969697;28;20023;-48
2021/07/20 05:16:55;;;;;;;6.15;5.55;;;;;;;20.61;59.23;101124.66;4976481;28;20018;-50
2021/07/20 05:19:21;;;;;;;7.55;6.20;;;;;;;20.62;59.17;101129.09;4955071;28;20469;-49
2021/07/20 05:21:47;;;;;;;6.63;5.85;;;;;;;20.62;59.12;101129.09;4974157;28;20513;-49
2021/07/20 05:24:12;;;;;;;8.13;6.20;;;;;;;20.63;59.06;101137.97;4971604;28;20026;-52
2021/07/20 05:26:40;;;;;;;6.85;5.82;;;;;;;20.63;59.03;101136.19;4972901;28;20509;-49
2021/07/20 05:29:06;;;;;;;5.82;5.10;;;;;;;20.60;59.14;101133.63;4978373;28;20023;-49
2021/07/20 05:31:32;;;;;;;7.82;6.05;;;;;;;20.62;58.95;101134.44;4976445;28;20033;-49
2021/07/20 05:33:57;;;;;;;6.60;5.90;;;;;;;20.61;58.99;101138.06;4977617;28;20026;-50
2021/07/20 05:36:23;;;;;;;6.10;5.40;;;;;;;20.60;59.14;101141.66;4973075;28;20140;-49
2021/07/20 05:38:48;;;;;;;6.18;5.68;;;;;;;20.59;59.21;101137.25;4976166;28;20027;-49
2021/07/20 05:41:13;;;;;;;7.07;5.60;;;;;;;20.59;59.08;101144.41;4977432;28;20026;-49
2021/07/20 05:43:40;;;;;;;6.03;5.43;;;;;;;20.58;59.20;101135.50;4974005;28;20046;-50
2021/07/20 05:46:06;;;;;;;7.57;5.18;;;;;;;20.59;58.90;101139.94;4973471;28;20031;-49
2021/07/20 05:48:31;;;;;;;5.03;4.55;;;;;;;20.57;59.06;101144.47;4972270;28;20058;-50
2021/07/20 05:51:02;;;;;;;5.63;5.00;;;;;;;20.59;59.15;101141.75;4970090;28;20161;-49
2021/07/20 05:53:30;;;;;;;6.85;5.32;;;;;;;20.57;59.05;101139.13;4978452;28;20480;-49
2021/07/20 05:56:02;;;;;;;6.90;5.68;;;;;;;20.58;59.12;101140.00;4975351;28;20035;-49
2021/07/20 05:58:28;;;;;;;7.05;5.90;;;;;;;20.58;59.03;101145.38;4973537;28;20019;-50
2021/07/20 06:00:53;;;;;;;6.72;5.47;;;;;;;20.56;58.97;101148.09;4975454;28;20050;-49
2021/07/20 06:03:21;;;;;;;6.85;5.80;;;;;;;20.56;59.08;101153.47;4977408;28;20481;-49
2021/07/20 06:05:52;;;;;;;6.03;5.43;;;;;;;20.58;58.87;101150.72;4972318;28;20026;-49
2021/07/20 06:08:20;;;;;;;6.03;5.40;;;;;;;20.55;59.10;101138.34;4983112;28;20033;-49
2021/07/20 06:10:53;;;;;;;6.40;5.72;;;;;;;20.55;59.08;101156.22;4972290;28;20031;-49
2021/07/20 06:13:21;;;;;;;5.93;5.35;;;;;;;20.53;59.06;101148.25;4973441;28;20031;-49
2021/07/20 06:15:47;;;;;;;7.05;5.38;;;;;;;20.50;59.04;101153.72;4974673;28;20044;-51
2021/07/20 06:18:14;;;;;;;7.10;5.03;;;;;;;20.54;59.04;101160.69;4971312;28;20025;-51
2021/07/20 06:20:43;;;;;;;6.85;5.03;;;;;;;20.53;59.02;101163.47;4972945;28;20042;-52
2021/07/20 06:23:09;;;;;;;6.22;5.63;;;;;;;20.53;58.99;101161.63;4969683;28;20041;-51
2021/07/20 06:25:34;;;;;;;6.85;5.32;;;;;;;20.54;59.07;101163.38;4958422;28;20461;-52
2021/07/20 06:28:00;;;;;;;6.88;5.07;;;;;;;20.49;58.96;101163.59;4970662;28;20110;-52
2021/07/20 06:30:26;;;;;;;6.13;5.10;;;;;;;20.52;58.92;101173.28;4972617;28;20027;-51
2021/07/20 06:32:52;;;;;;;6.47;4.75;;;;;;;20.48;59.25;101171.69;4976849;28;20117;-50
2021/07/20 06:35:17;;;;;;;5.32;4.82;;;;;;;20.48;59.04;101175.22;4968948;28;20172;-48
2021/07/20 06:37:45;;;;;;;6.03;5.25;;;;;;;20.48;59.07;101169.88;4969911;28;20082;-48
2021/07/20 06:40:13;;;;;;;5.50;4.78;;;;;;;20.49;58.99;101174.31;4971064;28;20030;-50
2021/07/20 06:42:39;;;;;;;5.43;4.88;;;;;;;20.50;58.72;101175.16;4970195;28;20035;-49
2021/07/20 06:45:05;;;;;;;5.70;5.20;;;;;;;20.49;58.95;101179.66;4955308;28;20277;-48
2021/07/20 06:47:34;;;;;;;5.70;5.00;;;;;;;20.48;59.02;101185.94;4974428;28;20401;-48
2021/07/20 06:50:04;;;;;;;5.97;4.93;;;;;;;20.49;59.13;101186.81;4968753;28;20531;-48
2021/07/20 06:52:29;;;;;;;5.60;4.63;;;;;;;20.49;58.82;101190.38;4969709;28;20440;-50
2021/07/20 06:54:55;;;;;;;5.25;4.75;;;;;;;20.48;59.10;101185.09;4970493;28;20041;-48
2021/07/20 06:57:21;;;;;;;7.22;4.95;;;;;;;20.50;59.16;101188.56;4970678;28;20034;-48
2021/07/20 06:59:46;;;;;;;5.13;4.40;;;;;;;20.46;59.12;101197.66;4969607;28;20023;-49
2021/07/20 07:02:18;;;;;;;6.70;4.93;;;;;;;20.46;59.03;101195.88;4971547;28;20064;-51
2021/07/20 07:04:58;;;;;;;4.85;4.35;;;;;;;20.47;58.97;101191.38;4970260;28;20022;-48
2021/07/20 07:07:23;;;;;;;5.88;4.82;;;;;;;20.46;59.11;101194.97;4984644;28;20063;-48
2021/07/20 07:09:50;;;;;;;5.45;4.68;;;;;;;20.47;58.62;101197.59;4972710;28;20416;-48
2021/07/20 07:12:16;;;;;;;6.00;4.75;;;;;;;20.46;58.59;101200.34;4986217;28;20030;-51
2021/07/20 07:14:42;;;;;;;4.95;4.45;;;;;;;20.46;58.77;101200.34;4970459;28;20058;-48
2021/07/20 07:17:08;;;;;;;5.95;4.90;;;;;;;20.44;58.69;101202.22;4953655;28;20058;-48
2021/07/20 07:19:34;;;;;;;5.07;4.32;;;;;;;20.42;58.42;101194.25;4971163;28;20031;-48
2021/07/20 07:21:59;;;;;;;5.80;4.90;;;;;;;20.44;58.61;101202.22;4967025;28;20023;-49
2021/07/20 07:24:25;;;;;;;5.22;4.75;;;;;;;20.43;58.52;101208.50;4969630;28;20420;-49
2021/07/20 07:26:52;;;;;;;6.15;4.85;;;;;;;20.44;58.54;101207.59;4969329;28;20473;-48
2021/07/20 07:29:18;;;;;;;4.80;4.30;;;;;;;20.44;58.75;101204.91;4969918;28;20473;-48
2021/07/20 07:31:45;;;;;;;5.32;4.82;;;;;;;20.42;58.58;101210.31;4970833;28;20034;-48
2021/07/20 07:34:11;;;;;;;5.38;4.80;;;;;;;20.44;58.69;101210.25;4971161;28;20046;-48
2021/07/20 07:36:37;;;;;;;5.65;4.60;;;;;;;20.42;58.45;101209.44;4970850;28;20398;-48
2021/07/20 07:39:05;;;;;;;4.63;4.22;;;;;;;20.41;58.69;101215.75;4969004;28;20077;-48
2021/07/20 07:41:34;;;;;;;6.10;4.68;;;;;;;20.42;58.61;101214.81;4984402;28;20031;-51
2021/07/20 07:44:01;;;;;;;4.85;4.35;;;;;;;20.41;58.44;101213.94;4969809;28;20030;-48
2021/07/20 07:46:29;;;;;;;4.95;4.45;;;;;;;20.42;58.21;101207.66;4968545;28;20397;-48
2021/07/20 07:48:55;;;;;;;4.97;4.30;;;;;;;20.41;58.73;101213.06;4968857;28;20030;-49
2021/07/20 07:51:20;;;;;;;6.22;4.95;;;;;;;20.38;58.61;101212.25;4969678;28;20097;-48
2021/07/20 07:53:46;;;;;;;6.13;4.75;;;;;;;20.38;58.69;101206.88;4969706;28;20038;-49
2021/07/20 07:56:12;;;;;;;5.50;5.00;;;;;;;20.40;58.73;101214.00;4952284;28;20448;-48
2021/07/20 07:58:38;;;;;;;6.18;4.75;;;;;;;20.38;58.35;101209.56;4969283;28;20055;-47
2021/07/20 08:01:04;;;;;;;6.82;4.97;;;;;;;20.41;58.78;101218.44;4971731;28;20057;-49
2021/07/20 08:03:31;;;;;;;5.28;4.75;;;;;;;20.37;58.48;101207.84;4968929;28;20018;-48
2021/07/20 08:05:59;;;;;;;5.43;4.93;;;;;;;20.38;58.85;101214.91;4967472;28;20033;-49
2021/07/20 08:08:25;;;;;;;6.03;4.68;;;;;;;20.38;58.48;101209.56;4968116;28;20042;-48
2021/07/20 08:10:51;;;;;;;5.50;4.68;;;;;;;20.38;58.66;101211.41;4969959;28;20039;-48
2021/07/20 08:13:19;;;;;;;4.90;4.47;;;;;;;20.40;58.47;101205.97;4972956;28;20061;-49
2021/07/20 08:15:50;;;;;;;5.35;4.32;;;;;;;20.37;58.62;101215.88;4970503;28;20422;-48
2021/07/20 08:18:16;;;;;;;;;;;;;;;20.38;58.71;101219.44;4972963;28;20019;-49
2021/07/20 08:20:42;;;;;;;5.03;4.53;;;;;;;20.37;58.63;101213.19;4972231;28;20040;-50
2021/07/20 08:23:07;;;;;;;9.88;4.63;;;;;;;20.37;58.58;101215.88;4969227;28;20034;-51
2021/07/20 08:25:39;;;;;;;6.45;4.30;;;;;;;20.37;58.17;101218.53;4969668;28;20029;-49
2021/07/20 08:28:08;;;;;;;5.57;4.78;;;;;;;20.36;58.14;101223.97;4982776;28;20026;-48
2021/07/20 08:30:39;;;;;;;5.28;4.80;;;;;;;20.35;58.38;101224.91;4959242;28;20026;-49
2021/07/20 08:33:06;;;;;;;5.30;4.80;;;;;;;20.36;58.73;101221.28;4969284;28;20082;-48
2021/07/20 08:35:32;;;;;;;4.65;4.18;;;;;;;20.36;58.58;101216.81;4968150;28;20129;-49
2021/07/20 08:38:02;;;;;;;5.47;4.57;;;;;;;20.37;58.64;101217.66;4969275;28;20101;-50
2021/07/20 08:40:56;;;;;;;5.95;5.22;;;;;;;20.35;58.59;101224.91;4976126;28;20022;-51
2021/07/20 08:44:06;;;;;;;5.47;4.65;;;;;;;20.38;58.33;101222.09;4987459;28;20084;-47
2021/07/20 08:46:37;;;;;;;5.00;4.60;;;;;;;20.34;58.50;101218.66;4895195;29;20062;-49
2021/07/20 08:49:21;;;;;;;6.45;4.85;;;;;;;20.33;58.44;101224.09;4964446;28;20396;-49
2021/07/20 08:52:17;;;;;;;5.43;4.65;;;;;;;20.32;58.33;101215.19;4973750;28;20275;-51
2021/07/20 08:54:50;;;;;;;12.88;6.32;;;;;;;20.33;58.57;101222.28;4970557;28;20544;-49
2021/07/20 08:57:24;;;;;;;6.30;4.50;;;;;;;20.33;58.55;101221.41;4971393;28;20130;-48
2021/07/20 08:59:55;;;;;;;4.75;4.28;;;;;;;20.33;58.08;101216.94;4973893;28;20064;-48
2021/07/20 09:02:35;;;;;;;6.88;4.80;;;;;;;20.36;58.23;101219.50;4988041;28;20686;-49
2021/07/20 09:05:07;;;;;;;6.40;4.38;;;;;;;20.34;58.47;101213.31;4976404;28;20966;-50
2021/07/20 09:07:39;;;;;;;6.07;5.10;;;;;;;20.33;58.49;101221.41;4979111;28;20045;-50
2021/07/20 09:10:05;;;;;;;7.85;5.30;;;;;;;20.35;58.40;101212.41;4975369;28;20023;-50
2021/07/20 09:12:32;;;;;;;6.43;4.93;;;;;;;20.34;58.31;101209.78;4976164;28;20026;-50
2021/07/20 09:15:03;;;;;;;6.28;5.07;;;;;;;20.36;58.20;101214.13;4955729;28;20041;-49
2021/07/20 09:17:38;;;;;;;7.18;4.72;;;;;;;20.36;58.41;101221.28;4975852;28;20037;-49
2021/07/20 09:20:26;;;;;;;5.07;4.57;;;;;;;20.35;58.30;101217.75;4975041;28;20492;-49
2021/07/20 09:22:55;;;;;;;7.47;5.13;;;;;;;20.37;58.23;101217.66;4973727;28;20031;-49
2021/07/20 09:25:28;;;;;;;6.65;4.75;;;;;;;20.38;58.27;101219.44;4960366;28;20038;-50
2021/07/20 09:28:12;;;;;;;8.98;4.93;;;;;;;20.35;58.05;101215.06;4971046;28;20034;-50
2021/07/20 09:30:46;;;;;;;4.80;4.38;;;;;;;20.34;58.10;101229.38;4972332;28;20038;-49
2021/07/20 09:33:24;;;;;;;9.52;4.90;;;;;;;20.37;58.18;101218.53;4972543;28;20486;-49
2021/07/20 09:35:59;;;;;;;5.95;5.13;;;;;;;20.37;58.12;101223.91;4972298;28;20023;-50
2021/07/20 09:38:40;;;;;;;7.00;4.90;;;;;;;20.36;58.45;101216.81;4973780;28;20030;-50
2021/07/20 09:41:14;;;;;;;5.50;4.45;;;;;;;20.38;58.18;101212.25;4972940;28;20383;-50
2021/07/20 09:44:11;;;;;;;5.75;4.60;;;;;;;20.36;58.21;101211.47;4976407;28;20404;-50
2021/07/20 09:47:06;;;;;;;8.13;5.00;;;;;;;20.35;58.18;101219.56;4969433;28;20460;-49
2021/07/20 09:49:37;;;;;;;4.72;3.97;;;;;;;20.36;57.86;101222.16;4953045;28;20062;-50
2021/07/20 09:52:27;;;;;;;5.05;4.20;;;;;;;20.36;58.02;101215.94;4980398;28;20027;-50
2021/07/20 09:55:05;;;;;;;5.75;4.85;;;;;;;20.36;58.11;101216.81;4972711;28;20062;-49
2021/07/20 09:57:50;;;;;;;5.50;4.32;;;;;;;20.35;58.10;101215.06;4972414;28;20027;-51
2021/07/20 10:00:27;;;;;;;5.45;4.63;;;;;;;20.35;58.09;101204.38;4987076;28;20085;-50
2021/07/20 10:03:04;;;;;;;5.22;4.72;;;;;;;20.36;58.21;101205.22;4973834;28;20529;-49
2021/07/20 10:05:50;;;;;;;5.72;5.22;;;;;;;20.36;57.98;101200.75;4970803;28;20026;-50
2021/07/20 10:08:26;;;;;;;6.30;4.50;;;;;;;20.36;57.76;101205.22;4974039;28;20393;-53
2021/07/20 10:11:16;;;;;;;5.57;4.68;;;;;;;20.35;58.15;101208.84;4972113;28;20073;-49
2021/07/20 10:14:03;;;;;;;4.60;4.20;;;;;;;20.36;58.09;101206.09;4980777;28;20031;-50
2021/07/20 10:17:06;;;;;;;4.80;4.22;;;;;;;20.36;57.91;101199.84;4987194;28;20041;-49
2021/07/20 10:19:42;;;;;;;6.30;4.57;;;;;;;20.34;58.29;101199.91;4974793;28;20069;-50
2021/07/20 10:22:09;;;;;;;5.60;4.32;;;;;;;20.34;58.26;101197.25;4978669;28;20015;-49
2021/07/20 10:24:37;;;;;;;4.85;4.35;;;;;;;20.36;58.23;101202.53;4971894;28;20027;-49
2021/07/20 10:27:11;;;;;;;4.70;4.20;;;;;;;20.36;57.93;101197.19;4969615;28;20076;-49
2021/07/20 10:29:58;;;;;;;4.80;3.90;;;;;;;20.35;57.61;101203.47;4971503;28;20041;-48
2021/07/20 10:32:33;;;;;;;4.95;4.03;;;;;;;20.35;57.42;101212.41;4971221;28;20030;-48
2021/07/20 10:35:02;;;;;;;10.57;4.93;;;;;;;20.34;57.92;101199.91;4969536;28;20023;-50
2021/07/20 10:37:29;;;;;;;5.15;4.70;;;;;;;20.35;57.95;101204.38;4975422;28;20481;-48
2021/07/20 10:39:59;;;;;;;5.10;4.22;;;;;;;20.35;58.03;101201.69;4971643;28;20031;-48
2021/07/20 10:42:49;;;;;;;7.03;4.32;;;;;;;20.35;57.31;101199.00;4970299;28;20057;-50
2021/07/20 10:45:17;;;;;;;4.40;3.95;;;;;;;20.34;56.92;101205.28;4971579;28;20540;-49
2021/07/20 10:47:59;;;;;;;4.70;4.20;;;;;;;20.33;56.35;101206.22;4970276;28;20034;-48
2021/07/20 10:50:55;;;;;;;4.72;4.32;;;;;;;20.34;56.77;101191.88;4970313;28;21110;-50
2021/07/20 10:53:31;;;;;;;6.30;4.45;;;;;;;20.34;56.96;101193.72;4972292;28;20101;-49
2021/07/20 10:56:17;;;;;;;4.22;3.47;;;;;;;20.36;57.04;101198.06;4973475;28;20022;-47
2021/07/20 10:58:45;;;;;;;5.97;3.95;;;;;;;20.35;56.52;101188.28;4970893;28;20019;-48
2021/07/20 11:01:17;;;;;;;6.40;3.75;;;;;;;20.36;56.94;101183.78;4970445;28;20027;-48
2021/07/20 11:04:08;;;;;;;5.65;3.95;;;;;;;20.35;56.75;101188.28;4975118;28;20481;-50
2021/07/20 11:06:36;;;;;;;5.15;4.38;;;;;;;20.36;56.00;101187.34;4979325;28;20500;-50
2021/07/20 11:09:04;;;;;;;5.30;4.80;;;;;;;20.35;55.93;101187.41;4965636;28;20070;-50
2021/07/20 11:11:37;;;;;;;5.15;4.65;;;;;;;20.35;55.35;101196.31;4979756;28;20540;-51
2021/07/20 11:14:03;;;;;;;6.22;4.53;;;;;;;20.35;56.01;101188.28;4974769;28;20388;-51
2021/07/20 11:16:30;;;;;;;6.35;3.95;;;;;;;20.35;55.84;101182.94;4974247;28;20113;-50
2021/07/20 11:18:56;;;;;;;5.15;4.68;;;;;;;20.36;55.91;101181.09;4973049;28;20313;-51
2021/07/20 11:21:24;;;;;;;5.13;4.03;;;;;;;20.36;56.01;101181.09;4970572;28;20463;-51
2021/07/20 11:23:51;;;;;;;4.47;4.07;;;;;;;20.36;55.52;101184.66;4968621;28;20053;-50
2021/07/20 11:26:18;;;;;;;4.80;4.22;;;;;;;20.38;55.69;101192.66;4975618;28;20018;-50
2021/07/20 11:28:44;;;;;;;4.88;4.25;;;;;;;20.35;55.66;101188.28;4975745;28;20027;-50
2021/07/20 11:31:13;;;;;;;6.25;4.55;;;;;;;20.38;56.17;101181.94;4977066;28;20022;-51
2021/07/20 11:33:47;;;;;;;4.40;4.00;;;;;;;20.38;56.08;101185.47;4971026;28;20030;-50
2021/07/20 11:36:18;;;;;;;6.85;4.25;;;;;;;20.37;56.13;101183.72;4971590;28;20030;-49
2021/07/20 11:38:45;;;;;;;5.50;3.80;;;;;;;20.38;56.08;101181.94;4964947;28;20037;-49
2021/07/20 11:41:40;;;;;;;4.65;3.95;;;;;;;20.38;55.74;101177.44;4961522;28;20296;-49
2021/07/20 11:44:12;;;;;;;4.25;3.90;;;;;;;20.38;55.55;101180.09;4971318;28;20025;-50
2021/07/20 11:46:44;;;;;;;6.35;4.22;;;;;;;20.36;55.09;101187.34;4975575;28;20469;-50
2021/07/20 11:49:24;;;;;;;4.13;3.72;;;;;;;20.38;55.14;101180.09;4972181;28;20031;-50